createdAt,value
2022-10-05T00:00:24.344Z,100359.11
2022-10-05T00:05:53.821Z,100364.20
2022-10-05T00:11:04.498Z,100355.23
2022-10-05T00:16:34.350Z,100362.27
2022-10-05T00:22:03.770Z,100369.66
2022-10-05T00:27:39.746Z,100359.32
2022-10-05T00:32:56.028Z,100356.65
2022-10-05T00:38:28.571Z,100354.69
2022-10-05T00:44:32.132Z,100352.23
2022-10-05T00:50:53.106Z,100357.90
2022-10-05T00:57:27.771Z,100350.66
2022-10-05T01:03:01.473Z,100331.99
2022-10-05T01:08:58.573Z,100321.36
2022-10-05T01:14:47.127Z,100320.20
2022-10-05T01:20:33.988Z,100325.53
2022-10-05T01:26:55.643Z,100307.96
2022-10-05T01:32:56.275Z,100308.28
2022-10-05T01:38:54.150Z,100306.73
2022-10-05T01:44:51.707Z,100318.67
2022-10-05T01:51:00.828Z,100317.45
2022-10-05T02:07:32.283Z,100303.63
2022-10-05T02:12:37.788Z,100297.14
2022-10-05T02:18:03.691Z,100293.42
2022-10-05T02:23:12.869Z,100285.04
2022-10-05T02:28:23.995Z,100276.15
2022-10-05T02:33:31.456Z,100274.61
2022-10-05T02:38:49.890Z,100277.09
2022-10-05T02:44:20.623Z,100270.88
2022-10-05T02:49:29.870Z,100266.52
2022-10-05T02:55:21.269Z,100282.34
2022-10-05T03:00:28.964Z,100280.45
2022-10-05T03:05:47.156Z,100280.30
2022-10-05T03:11:33.234Z,100280.95
2022-10-05T03:17:04.119Z,100283.63
2022-10-05T03:22:22.915Z,100278.15
2022-10-05T03:27:53.252Z,100275.65
2022-10-05T03:33:06.837Z,100264.85
2022-10-05T03:38:17.268Z,100265.80
2022-10-05T03:43:34.839Z,100265.42
2022-10-05T03:48:48.011Z,100259.10
2022-10-05T03:54:00.186Z,100253.65
2022-10-05T03:59:22.926Z,100252.73
2022-10-05T04:05:14.331Z,100249.09
2022-10-05T04:11:02.743Z,100251.08
2022-10-05T04:16:56.806Z,100249.86
2022-10-05T04:23:03.735Z,100242.88
2022-10-05T04:29:02.325Z,100244.77
2022-10-05T04:34:26.108Z,100245.40
2022-10-05T04:39:31.936Z,100243.42
2022-10-05T04:44:40.742Z,100244.98
2022-10-05T04:50:09.564Z,100242.59
2022-10-05T04:55:32.115Z,100238.79
2022-10-05T05:01:10.684Z,100241.32
2022-10-05T05:06:43.322Z,100229.52
2022-10-05T05:12:08.471Z,100229.21
2022-10-05T05:17:33.291Z,100218.95
2022-10-05T05:22:59.335Z,100235.24
2022-10-05T05:28:30.216Z,100236.64
2022-10-05T05:33:33.599Z,100240.02
2022-10-05T05:39:06.711Z,100235.71
2022-10-05T05:44:32.507Z,100229.20
2022-10-05T05:50:08.625Z,100238.08
2022-10-05T05:55:30.321Z,100240.91
2022-10-05T06:00:50.375Z,100247.86
2022-10-05T06:06:04.845Z,100251.10
2022-10-05T06:11:24.193Z,100241.65
2022-10-05T06:16:27.549Z,100229.87
2022-10-05T06:21:39.065Z,100207.27
2022-10-05T06:26:54.539Z,100210.38
2022-10-05T06:32:15.926Z,100211.66
2022-10-05T06:37:56.140Z,100208.36
2022-10-05T06:43:02.481Z,100203.67
2022-10-05T06:48:32.609Z,100211.80
2022-10-05T06:54:12.690Z,100210.27
2022-10-05T06:59:18.649Z,100214.40
2022-10-05T07:04:39.576Z,100208.39
2022-10-05T07:09:49.012Z,100207.80
2022-10-05T07:15:40.798Z,100194.88
2022-10-05T07:21:03.752Z,100174.34
2022-10-05T07:26:10.959Z,100164.98
2022-10-05T07:31:27.822Z,100166.59
2022-10-05T07:36:55.030Z,100165.70
2022-10-05T07:42:10.904Z,100169.96
2022-10-05T07:47:37.157Z,100176.96
2022-10-05T07:52:47.188Z,100183.36
2022-10-05T07:58:10.312Z,100180.71
2022-10-05T08:03:41.208Z,100180.34
2022-10-05T08:08:52.844Z,100179.83
2022-10-05T08:14:24.835Z,100159.68
2022-10-05T08:19:41.019Z,100161.63
2022-10-05T08:25:06.614Z,100168.88
2022-10-05T08:30:13.585Z,100181.69
2022-10-05T08:35:45.521Z,100183.65
2022-10-05T08:41:21.155Z,100190.81
2022-10-05T08:46:48.013Z,100195.20
2022-10-05T08:51:57.826Z,100192.27
2022-10-05T08:57:39.831Z,100191.40
2022-10-05T09:03:20.833Z,100192.89
2022-10-05T09:08:45.873Z,100188.76
2022-10-05T09:14:04.408Z,100182.02
2022-10-05T09:19:45.083Z,100181.64
2022-10-05T09:24:54.404Z,100171.41
2022-10-05T09:30:06.702Z,100171.59
2022-10-05T09:35:35.297Z,100191.42
2022-10-05T09:40:53.704Z,100192.56
2022-10-05T09:46:24.949Z,100200.45
2022-10-05T09:51:53.421Z,100200.37
2022-10-05T09:57:28.948Z,100201.35
2022-10-05T10:02:57.286Z,100184.80
2022-10-05T10:08:20.679Z,100189.11
2022-10-05T10:13:53.820Z,100191.59
2022-10-05T10:19:14.693Z,100190.22
2022-10-05T10:24:38.386Z,100183.33
2022-10-05T10:30:13.682Z,100182.30
2022-10-05T10:35:35.100Z,100199.89
2022-10-05T10:40:54.695Z,100209.23
2022-10-05T10:46:15.927Z,100208.80
2022-10-05T10:52:02.827Z,100208.27
2022-10-05T10:57:14.144Z,100201.13
2022-10-05T11:02:45.565Z,100170.12
2022-10-05T11:08:03.015Z,100168.64
2022-10-05T11:13:25.839Z,100166.75
2022-10-05T11:19:07.304Z,100150.20
2022-10-05T11:24:42.019Z,100140.07
2022-10-05T11:29:54.556Z,100138.77
2022-10-05T11:35:15.497Z,100143.88
2022-10-05T11:41:16.201Z,100139.89
2022-10-05T11:46:41.455Z,100148.13
2022-10-05T11:52:11.584Z,100149.91
2022-10-05T11:57:26.420Z,100154.33
2022-10-05T12:02:57.264Z,100154.88
2022-10-05T12:08:19.220Z,100151.52
2022-10-05T12:13:37.654Z,100149.02
2022-10-05T12:19:03.356Z,100149.58
2022-10-05T12:24:26.815Z,100142.23
2022-10-05T12:29:43.330Z,100143.33
2022-10-05T12:35:01.665Z,100137.04
2022-10-05T12:40:32.754Z,100140.46
2022-10-05T12:45:59.976Z,100151.16
2022-10-05T12:51:09.170Z,100153.69
2022-10-05T12:56:45.064Z,100150.80
2022-10-05T13:02:15.678Z,100151.82
2022-10-05T13:07:34.221Z,100147.31
2022-10-05T13:13:02.062Z,100150.73
2022-10-05T13:18:27.228Z,100143.47
2022-10-05T13:23:45.099Z,100141.50
2022-10-05T13:29:18.285Z,100142.55
2022-10-05T13:34:25.523Z,100142.05
2022-10-05T13:39:47.771Z,100141.96
2022-10-05T13:44:55.765Z,100142.56
2022-10-05T13:50:17.512Z,100137.89
2022-10-05T13:55:30.677Z,100141.27
2022-10-05T14:00:43.960Z,100145.55
2022-10-05T14:05:57.668Z,100144.08
2022-10-05T14:11:29.132Z,100142.75
2022-10-05T14:16:33.929Z,100137.88
2022-10-05T14:22:08.126Z,100131.85
2022-10-05T14:27:31.241Z,100119.40
2022-10-05T14:33:02.060Z,100109.34
2022-10-05T14:38:32.250Z,100118.92
2022-10-05T14:43:37.107Z,100127.30
2022-10-05T14:48:45.118Z,100127.19
2022-10-05T14:53:58.789Z,100122.46
2022-10-05T14:59:37.553Z,100119.76
2022-10-05T15:04:47.383Z,100119.91
2022-10-05T15:10:05.869Z,100113.79
2022-10-05T15:15:32.978Z,100121.27
2022-10-05T15:20:54.391Z,100113.88
2022-10-05T15:26:13.590Z,100111.48
2022-10-05T15:31:55.199Z,100119.08
2022-10-05T15:37:08.850Z,100110.67
2022-10-05T15:42:17.086Z,100103.48
2022-10-05T15:47:46.428Z,100101.14
2022-10-05T15:52:59.724Z,100104.16
2022-10-05T15:58:31.503Z,100106.69
2022-10-05T16:03:47.149Z,100099.91
2022-10-05T16:09:27.877Z,100098.45
2022-10-05T16:14:55.249Z,100095.70
2022-10-05T16:20:35.972Z,100088.30
2022-10-05T16:25:47.424Z,100088.91
2022-10-05T16:31:04.732Z,100095.02
2022-10-05T16:36:53.360Z,100092.95
2022-10-05T16:42:26.261Z,100097.65
2022-10-05T16:47:41.558Z,100093.30
2022-10-05T16:52:51.419Z,100091.80
2022-10-05T16:57:57.110Z,100093.48
2022-10-05T17:03:16.061Z,100093.64
2022-10-05T17:08:45.794Z,100096.26
2022-10-05T17:13:58.019Z,100101.88
2022-10-05T17:19:19.856Z,100095.33
2022-10-05T17:25:00.549Z,100099.58
2022-10-05T17:30:22.214Z,100094.31
2022-10-05T17:36:01.054Z,100091.23
2022-10-05T17:41:10.145Z,100088.82
2022-10-05T17:46:36.398Z,100082.91
2022-10-05T17:51:58.371Z,100078.42
2022-10-05T17:57:04.874Z,100076.49
2022-10-05T18:02:20.099Z,100070.69
2022-10-05T18:07:24.966Z,100062.16
2022-10-05T18:12:45.925Z,100057.25
2022-10-05T18:17:59.715Z,100059.79
2022-10-05T18:23:10.011Z,100056.45
2022-10-05T18:28:23.405Z,100051.75
2022-10-05T18:34:01.218Z,100043.86
2022-10-05T18:39:13.971Z,100045.75
2022-10-05T18:44:46.454Z,100043.45
2022-10-05T18:50:04.875Z,100043.88
2022-10-05T18:55:33.033Z,100039.30
2022-10-05T19:00:59.556Z,100033.82
2022-10-05T19:06:04.428Z,100029.72
2022-10-05T19:11:23.593Z,100028.16
2022-10-05T19:16:49.703Z,100027.61
2022-10-05T19:22:11.581Z,100026.73
2022-10-05T19:27:26.705Z,100025.06
2022-10-05T19:32:51.467Z,100022.54
2022-10-05T19:38:00.981Z,100018.89
2022-10-05T19:43:18.998Z,100014.02
2022-10-05T19:48:38.214Z,100019.48
2022-10-05T19:53:47.204Z,100025.44
2022-10-05T19:58:52.228Z,100025.46
2022-10-05T20:03:58.349Z,100025.94
2022-10-05T20:09:19.785Z,100032.77
2022-10-05T20:14:31.761Z,100032.20
2022-10-05T20:19:56.716Z,100036.63
2022-10-05T20:25:31.059Z,100042.45
2022-10-05T20:30:34.464Z,100046.98
2022-10-05T20:35:37.674Z,100041.52
2022-10-05T20:40:40.984Z,100040.59
2022-10-05T20:45:44.192Z,100039.67
2022-10-05T20:50:47.717Z,100035.30
2022-10-05T20:55:50.907Z,100031.75
2022-10-05T21:01:12.924Z,100030.10
2022-10-05T21:06:18.194Z,100027.97
2022-10-05T21:11:21.739Z,100030.19
2022-10-05T21:16:25.271Z,100033.66
2022-10-05T21:21:28.873Z,100029.00
2022-10-05T21:26:33.110Z,100029.32
2022-10-05T21:31:37.115Z,100024.90
2022-10-05T21:36:40.549Z,100023.61
2022-10-05T21:41:43.856Z,100019.25
2022-10-05T21:46:48.568Z,100017.70
2022-10-05T21:51:54.046Z,100015.41
2022-10-05T21:56:59.017Z,100014.93
2022-10-05T22:02:02.904Z,100017.49
2022-10-05T22:07:20.624Z,100014.95
2022-10-05T22:12:24.717Z,100015.93
2022-10-05T22:17:31.442Z,100013.11
2022-10-05T22:22:34.834Z,100015.08
2022-10-05T22:27:38.111Z,100017.68
2022-10-05T22:32:42.888Z,100016.39
2022-10-05T22:37:46.498Z,100020.25
2022-10-05T22:42:49.987Z,100017.16
2022-10-05T22:47:53.323Z,100016.92
2022-10-05T22:52:56.486Z,100019.89
2022-10-05T22:58:02.096Z,100023.55
2022-10-05T23:03:05.511Z,100023.85
2022-10-05T23:08:08.691Z,100021.24
2022-10-05T23:13:11.892Z,100020.23
2022-10-05T23:18:16.908Z,100015.90
2022-10-05T23:23:20.395Z,100018.09
2022-10-05T23:28:23.764Z,100015.47
2022-10-05T23:33:27.798Z,100020.96
2022-10-05T23:38:31.517Z,100018.69
2022-10-05T23:43:35.056Z,100011.81
2022-10-05T23:48:38.577Z,100011.89
2022-10-05T23:53:42.193Z,100011.20
2022-10-05T23:58:45.502Z,100010.70
